• Join FlightAware (Why Join?)
  • Login
  • US Flag 
07:16AM EDT


 

Airport Tracker/Info


-or-


 

Live Flight TrackerFlight Track Log ✈ AWE1600 ✈ 24-Apr-2013 ✈ KBDL - KPHL

Flight Track Log - Related Links

Times and Time Zones

All times are in EDT time to prevent confusion due to time zone crossing. See the AWE1600 flight status page for this flight to view local times or setup timezone preferences in your user account.

Time Position Orientation Groundspeed Altitude Reporting Facility
EDT Latitude Longitude Course Direction KTS MPH feet Rate Location/Type
07:09AM 41.9478 -72.6775 180° South 139 160 900  Level Boston Center
07:10AM 41.9522 -72.6411 81° East 169 194 2,100 2,400 Climbing Boston Center
07:12AM 41.6881 -72.5667 180° South  Level FlightAware Approximate
07:12AM 41.8794 -72.5572 139° Southeast 259 298 6,100  Level Boston Center
07:13AM 41.6149 -72.5057 132° Southeast  Level FlightAware Approximate
07:13AM 41.8044 -72.5153 157° South 286 329 9,300  Level Boston Center
07:14AM 41.5564 -72.4163 129° Southeast  Level FlightAware Approximate
07:14AM 41.7189 -72.4678 157° South 323 372 11,600  Level Boston Center
07:15AM 41.4914 -72.3500 180° South  Level FlightAware Approximate
07:15AM 41.6208 -72.4150 158° South 362 417 13,700  Level Boston Center
07:16AM 41.5125 -72.3625 160° South 410 472 16,200 2,340 Climbing Boston Center
07:17AM 41.3939 -72.3517 176° South 422 486 18,400 2,160 Climbing Boston Center
07:18AM 41.2875 -72.3572 182° South 434 499 20,600 1,800 Climbing Boston Center
07:19AM 41.1894 -72.4456 214° Southwest 405 466 22,100 1,620 Climbing Boston Center
07:20AM 41.0936 -72.5283 213° Southwest 405 466 23,900 900 Climbing Boston Center
07:21AM 40.9936 -72.6189 214° Southwest 423 487 24,000  Climbing Boston Center
07:22AM 40.8933 -72.7008 212° Southwest 433 498 23,900 -720 Descending Boston Center
07:24AM 40.7058 -72.8653 214° Southwest 416 479 22,000 -1,020 Descending New York Center
07:25AM 40.6128 -72.9444 213° Southwest 410 472 21,000 -1,020 Descending New York Center
07:26AM 40.5217 -73.0208 213° Southwest 404 465 20,000 -540 Descending New York Center
07:27AM 40.4306 -73.0994 213° Southwest 404 465 20,000  Level New York Center
07:28AM 40.3414 -73.1756 213° Southwest 398 458 20,000  Level New York Center
07:29AM 40.2522 -73.2511 213° Southwest 398 458 20,000  Level New York Center
07:30AM 40.1631 -73.3267 213° Southwest 398 458 20,000  Level New York Center
07:31AM 40.0739 -73.4022 213° Southwest 393 452 20,000  Level New York Center
07:32AM 39.9847 -73.4772 213° Southwest 393 452 20,000  Level New York Center
07:33AM 39.8494 -73.6214 219° Southwest 380 437 20,000 -420 Level Washington Center
07:34AM 39.7864 -73.7256 232° Southwest 370 426 18,900 -1,200 Descending Washington Center
07:35AM 39.7233 -73.8272 231° Southwest 370 426 17,700 -1,260 Descending Washington Center
07:36AM 39.6642 -73.9203 230° Southwest 359 413 16,400 -1,260 Descending Washington Center
07:37AM 39.5989 -74.0186 229° Southwest 359 413 15,200 -1,200 Descending Washington Center
07:38AM 39.5419 -74.1142 232° Southwest 359 413 14,000 -840 Descending Washington Center
07:39AM 39.5253 -74.1631 246° West 284 327 14,000 -540 Level FAA TRACON SMA TRACON (SMA)
07:39AM 39.5247 -74.2028 269° West 291 335 13,600 -1,080 Descending FAA TRACON SMA TRACON (SMA)
07:39AM 39.5256 -74.2339 272° West 280 322 13,300 -900 Descending FAA TRACON SMA TRACON (SMA)
07:40AM 39.5261 -74.2647 271° West 279 321 13,000 -900 Descending FAA TRACON SMA TRACON (SMA)
07:40AM 39.5264 -74.3014 271° West 277 319 12,700 -780 Descending FAA TRACON SMA TRACON (SMA)
07:40AM 39.5269 -74.3328 271° West 275 316 12,500 -780 Descending FAA TRACON SMA TRACON (SMA)
07:41AM 39.5275 -74.3628 271° West 273 314 12,200 -900 Descending FAA TRACON SMA TRACON (SMA)
07:41AM 39.5281 -74.4003 271° West 272 313 11,900 -780 Descending FAA TRACON SMA TRACON (SMA)
07:41AM 39.5281 -74.4303 270° West 272 313 11,700 -780 Descending FAA TRACON SMA TRACON (SMA)
07:42AM 39.5289 -74.4597 272° West 269 310 11,400 -900 Descending FAA TRACON SMA TRACON (SMA)
07:42AM 39.5311 -74.4947 275° West 268 308 11,100 -780 Descending FAA TRACON SMA TRACON (SMA)
07:42AM 39.5306 -74.5261 269° West 267 307 10,900 -720 Descending FAA TRACON SMA TRACON (SMA)
07:43AM 39.5311 -74.5631 271° West 268 308 10,600 -900 Descending FAA TRACON SMA TRACON (SMA)
07:43AM 39.5319 -74.5906 272° West 268 308 10,300 -780 Descending FAA TRACON SMA TRACON (SMA)
07:43AM 39.5322 -74.6225 271° West 268 308 10,100 -780 Descending FAA TRACON SMA TRACON (SMA)
07:44AM 39.5336 -74.6589 273° West 269 310 9,800 -900 Descending FAA TRACON SMA TRACON (SMA)
07:44AM 39.5333 -74.6894 269° West 267 307 9,500 -780 Descending FAA TRACON SMA TRACON (SMA)
07:44AM 39.5339 -74.7186 271° West 284 327 9,300 -660 Descending FAA TRACON SMA TRACON (SMA)
07:45AM 39.5339 -74.7486 270° West 277 319 9,100 -480 Descending FAA TRACON SMA TRACON (SMA)
07:45AM 39.5350 -74.7856 272° West 268 308 9,000 -180 Descending FAA TRACON SMA TRACON (SMA)
07:45AM 39.5356 -74.8136 271° West 267 307 9,000 -480 Level FAA TRACON SMA TRACON (SMA)
07:46AM 39.5394 -74.8433 280° West 266 306 8,700 -900 Descending FAA TRACON SMA TRACON (SMA)
07:46AM 39.5575 -74.8719 309° West 266 306 8,400 -900 Descending FAA TRACON SMA TRACON (SMA)
07:46AM 39.5725 -74.8914 315° West 261 300 8,100 -900 Descending FAA TRACON SMA TRACON (SMA)
07:47AM 39.5889 -74.9133 314° West 264 304 7,800 -1,080 Descending FAA TRACON SMA TRACON (SMA)
07:47AM 39.6125 -74.9325 328° Northwest 273 314 7,400 -1,080 Descending FAA TRACON SMA TRACON (SMA)
07:47AM 39.6344 -74.9367 352° North 267 307 7,100 -1,080 Descending FAA TRACON SMA TRACON (SMA)
07:48AM 39.6578 -74.9411 352° North 266 306 6,700 -1,080 Descending FAA TRACON SMA TRACON (SMA)
07:48AM 39.6861 -74.9461 352° North 267 307 6,400 -900 Descending FAA TRACON SMA TRACON (SMA)
07:48AM 39.7083 -74.9506 351° North 264 304 6,100 -600 Descending FAA TRACON SMA TRACON (SMA)
07:49AM 39.7344 -74.9519 358° North 256 295 6,000 -180 Descending FAA TRACON SMA TRACON (SMA)
07:49AM 39.7550 -74.9503 North 235 270 6,000  Level FAA TRACON SMA TRACON (SMA)
07:49AM 39.7742 -74.9489 North 219 252 6,000  Level FAA TRACON SMA TRACON (SMA)
07:50AM 39.7978 -74.9467 North 224 258 6,000  Level FAA TRACON SMA TRACON (SMA)
07:50AM 39.8172 -74.9456 North 223 257 6,000  Level FAA TRACON SMA TRACON (SMA)
07:50AM 39.8364 -74.9439 North 223 257 6,000 -480 Level FAA TRACON SMA TRACON (SMA)
07:51AM 39.8603 -74.9433 North 224 258 5,700 -1,200 Descending FAA TRACON SMA TRACON (SMA)
07:51AM 39.8789 -74.9422 North 224 258 5,200 -1,380 Descending FAA TRACON SMA TRACON (SMA)
07:51AM 39.8947 -74.9547 329° Northwest 212 244 4,800 -1,260 Descending FAA TRACON SMA TRACON (SMA)
07:52AM 39.9044 -74.9731 305° West 198 228 4,400 -1,560 Descending FAA TRACON SMA TRACON (SMA)
07:52AM 39.9131 -74.9939 298° West 195 224 3,800 -2,280 Descending FAA TRACON SMA TRACON (SMA)
07:52AM 39.9133 -75.0225 271° West 192 221 2,900 -2,700 Descending FAA TRACON SMA TRACON (SMA)